sensor_id;sensor_type;location;lat;lon;timestamp;P1;durP1;ratioP1;P2;durP2;ratioP2
14088;SDS011;7120;52.890;6.040;2023-01-06T00:01:54;1783.43;;;983.30;;
14088;SDS011;7120;52.890;6.040;2023-01-06T00:04:19;877.73;;;808.43;;
14088;SDS011;7120;52.890;6.040;2023-01-06T00:06:44;1037.60;;;947.40;;
14088;SDS011;7120;52.890;6.040;2023-01-06T00:09:10;1172.47;;;999.90;;
14088;SDS011;7120;52.890;6.040;2023-01-06T00:11:35;1001.13;;;910.37;;
14088;SDS011;7120;52.890;6.040;2023-01-06T00:14:03;939.87;;;850.97;;
14088;SDS011;7120;52.890;6.040;2023-01-06T00:16:28;1451.60;;;999.90;;
14088;SDS011;7120;52.890;6.040;2023-01-06T00:18:54;1080.57;;;909.43;;
14088;SDS011;7120;52.890;6.040;2023-01-06T00:21:21;1158.57;;;999.90;;
14088;SDS011;7120;52.890;6.040;2023-01-06T00:23:46;1227.13;;;902.00;;
14088;SDS011;7120;52.890;6.040;2023-01-06T00:26:12;1285.43;;;986.00;;
14088;SDS011;7120;52.890;6.040;2023-01-06T00:28:37;1881.03;;;999.90;;
14088;SDS011;7120;52.890;6.040;2023-01-06T00:31:07;1999.90;;;999.90;;
14088;SDS011;7120;52.890;6.040;2023-01-06T00:33:35;1999.90;;;999.90;;
14088;SDS011;7120;52.890;6.040;2023-01-06T00:36:02;1966.60;;;999.90;;
14088;SDS011;7120;52.890;6.040;2023-01-06T00:38:27;1881.10;;;999.90;;
14088;SDS011;7120;52.890;6.040;2023-01-06T00:40:53;1685.23;;;999.90;;
14088;SDS011;7120;52.890;6.040;2023-01-06T00:43:18;1758.67;;;999.90;;
14088;SDS011;7120;52.890;6.040;2023-01-06T00:45:43;1634.63;;;967.20;;
14088;SDS011;7120;52.890;6.040;2023-01-06T00:48:09;1991.30;;;999.90;;
14088;SDS011;7120;52.890;6.040;2023-01-06T00:50:34;1999.90;;;958.73;;
14088;SDS011;7120;52.890;6.040;2023-01-06T00:53:00;1739.70;;;999.90;;
14088;SDS011;7120;52.890;6.040;2023-01-06T00:55:26;1999.90;;;999.90;;
14088;SDS011;7120;52.890;6.040;2023-01-06T00:57:51;1551.57;;;930.17;;
14088;SDS011;7120;52.890;6.040;2023-01-06T01:00:17;1476.87;;;953.63;;
14088;SDS011;7120;52.890;6.040;2023-01-06T01:02:44;1597.67;;;999.90;;
14088;SDS011;7120;52.890;6.040;2023-01-06T01:05:09;1712.60;;;999.90;;
14088;SDS011;7120;52.890;6.040;2023-01-06T01:07:35;1477.13;;;999.90;;
14088;SDS011;7120;52.890;6.040;2023-01-06T01:10:00;1324.00;;;999.90;;
14088;SDS011;7120;52.890;6.040;2023-01-06T01:12:26;1999.90;;;999.90;;
14088;SDS011;7120;52.890;6.040;2023-01-06T01:14:52;1300.20;;;999.90;;
14088;SDS011;7120;52.890;6.040;2023-01-06T01:17:22;1776.90;;;999.90;;
14088;SDS011;7120;52.890;6.040;2023-01-06T01:19:50;1399.67;;;999.90;;
14088;SDS011;7120;52.890;6.040;2023-01-06T01:22:18;1329.33;;;999.90;;
14088;SDS011;7120;52.890;6.040;2023-01-06T01:24:44;1984.60;;;999.90;;
14088;SDS011;7120;52.890;6.040;2023-01-06T01:27:10;1732.73;;;999.90;;
14088;SDS011;7120;52.890;6.040;2023-01-06T01:29:35;1355.73;;;999.90;;
14088;SDS011;7120;52.890;6.040;2023-01-06T01:32:00;1897.50;;;837.07;;
14088;SDS011;7120;52.890;6.040;2023-01-06T01:34:26;1532.73;;;926.60;;
14088;SDS011;7120;52.890;6.040;2023-01-06T01:36:52;1565.07;;;999.90;;
14088;SDS011;7120;52.890;6.040;2023-01-06T01:39:19;1283.73;;;999.90;;
14088;SDS011;7120;52.890;6.040;2023-01-06T01:41:46;1986.13;;;876.10;;
14088;SDS011;7120;52.890;6.040;2023-01-06T01:47:13;1124.57;;;745.60;;
14088;SDS011;7120;52.890;6.040;2023-01-06T01:49:41;1684.13;;;936.33;;
14088;SDS011;7120;52.890;6.040;2023-01-06T01:52:08;1999.90;;;999.90;;
14088;SDS011;7120;52.890;6.040;2023-01-06T01:54:35;1323.33;;;818.27;;
14088;SDS011;7120;52.890;6.040;2023-01-06T01:57:14;1999.90;;;999.90;;
14088;SDS011;7120;52.890;6.040;2023-01-06T01:59:43;1298.33;;;999.90;;
14088;SDS011;7120;52.890;6.040;2023-01-06T02:02:10;1256.97;;;999.90;;
14088;SDS011;7120;52.890;6.040;2023-01-06T02:04:38;1720.97;;;892.13;;
14088;SDS011;7120;52.890;6.040;2023-01-06T02:07:05;1174.40;;;787.43;;
14088;SDS011;7120;52.890;6.040;2023-01-06T02:12:33;1146.73;;;582.03;;
14088;SDS011;7120;52.890;6.040;2023-01-06T02:14:59;1259.10;;;999.90;;
14088;SDS011;7120;52.890;6.040;2023-01-06T02:46:06;1999.90;;;999.90;;
14088;SDS011;7120;52.890;6.040;2023-01-06T02:51:31;1770.67;;;915.47;;
14088;SDS011;7120;52.890;6.040;2023-01-06T02:54:13;1792.20;;;926.03;;
14088;SDS011;7120;52.890;6.040;2023-01-06T02:56:47;1999.90;;;999.90;;
14088;SDS011;7120;52.890;6.040;2023-01-06T02:59:31;1652.17;;;879.10;;
14088;SDS011;7120;52.890;6.040;2023-01-06T03:02:00;1168.37;;;999.90;;
14088;SDS011;7120;52.890;6.040;2023-01-06T03:04:31;1162.07;;;999.90;;
14088;SDS011;7120;52.890;6.040;2023-01-06T03:07:00;1484.67;;;831.63;;
14088;SDS011;7120;52.890;6.040;2023-01-06T03:09:28;1463.13;;;999.90;;
14088;SDS011;7120;52.890;6.040;2023-01-06T03:11:58;1710.97;;;933.00;;
14088;SDS011;7120;52.890;6.040;2023-01-06T03:14:32;1235.53;;;999.90;;
14088;SDS011;7120;52.890;6.040;2023-01-06T03:17:03;1428.13;;;881.83;;
14088;SDS011;7120;52.890;6.040;2023-01-06T03:19:28;1999.90;;;703.77;;
14088;SDS011;7120;52.890;6.040;2023-01-06T03:21:55;1626.83;;;961.50;;
14088;SDS011;7120;52.890;6.040;2023-01-06T03:24:21;1773.43;;;940.70;;
14088;SDS011;7120;52.890;6.040;2023-01-06T03:26:47;1999.90;;;718.37;;
14088;SDS011;7120;52.890;6.040;2023-01-06T03:29:14;1218.83;;;999.90;;
14088;SDS011;7120;52.890;6.040;2023-01-06T03:36:55;1999.90;;;999.90;;
14088;SDS011;7120;52.890;6.040;2023-01-06T03:42:37;1166.87;;;999.90;;
14088;SDS011;7120;52.890;6.040;2023-01-06T03:48:02;1396.70;;;963.90;;
14088;SDS011;7120;52.890;6.040;2023-01-06T03:50:44;1999.90;;;999.90;;
14088;SDS011;7120;52.890;6.040;2023-01-06T03:55:44;1338.97;;;946.67;;
14088;SDS011;7120;52.890;6.040;2023-01-06T03:58:15;1735.47;;;999.90;;
14088;SDS011;7120;52.890;6.040;2023-01-06T04:00:43;1844.37;;;999.90;;
14088;SDS011;7120;52.890;6.040;2023-01-06T04:03:12;1448.07;;;999.90;;
14088;SDS011;7120;52.890;6.040;2023-01-06T04:05:39;1884.03;;;999.90;;
14088;SDS011;7120;52.890;6.040;2023-01-06T04:08:04;1432.27;;;999.90;;
14088;SDS011;7120;52.890;6.040;2023-01-06T04:10:30;1558.43;;;983.10;;
14088;SDS011;7120;52.890;6.040;2023-01-06T04:12:55;1474.20;;;999.90;;
14088;SDS011;7120;52.890;6.040;2023-01-06T04:15:22;1610.67;;;999.90;;
14088;SDS011;7120;52.890;6.040;2023-01-06T04:17:49;1146.53;;;896.70;;
14088;SDS011;7120;52.890;6.040;2023-01-06T04:20:17;1599.70;;;999.90;;
14088;SDS011;7120;52.890;6.040;2023-01-06T04:22:44;1723.80;;;971.57;;
14088;SDS011;7120;52.890;6.040;2023-01-06T04:25:09;1553.50;;;966.77;;
14088;SDS011;7120;52.890;6.040;2023-01-06T04:27:35;1558.90;;;997.50;;
14088;SDS011;7120;52.890;6.040;2023-01-06T04:30:01;1646.83;;;944.37;;
14088;SDS011;7120;52.890;6.040;2023-01-06T04:32:27;1601.13;;;816.70;;
14088;SDS011;7120;52.890;6.040;2023-01-06T04:34:53;1740.53;;;999.90;;
14088;SDS011;7120;52.890;6.040;2023-01-06T04:37:18;1542.13;;;999.90;;
14088;SDS011;7120;52.890;6.040;2023-01-06T04:39:43;1743.13;;;983.90;;
14088;SDS011;7120;52.890;6.040;2023-01-06T04:42:09;1438.23;;;995.80;;
14088;SDS011;7120;52.890;6.040;2023-01-06T04:44:34;1999.90;;;911.30;;
14088;SDS011;7120;52.890;6.040;2023-01-06T04:47:00;1617.57;;;925.47;;
14088;SDS011;7120;52.890;6.040;2023-01-06T04:49:25;1652.00;;;873.10;;
14088;SDS011;7120;52.890;6.040;2023-01-06T04:51:51;1671.50;;;789.87;;
14088;SDS011;7120;52.890;6.040;2023-01-06T04:54:17;1413.00;;;858.43;;
14088;SDS011;7120;52.890;6.040;2023-01-06T04:56:43;1644.87;;;780.23;;
14088;SDS011;7120;52.890;6.040;2023-01-06T04:59:08;1398.30;;;972.23;;
14088;SDS011;7120;52.890;6.040;2023-01-06T05:01:34;1700.37;;;885.23;;
14088;SDS011;7120;52.890;6.040;2023-01-06T05:04:00;1572.80;;;951.30;;
14088;SDS011;7120;52.890;6.040;2023-01-06T05:06:27;1607.80;;;999.90;;
14088;SDS011;7120;52.890;6.040;2023-01-06T05:08:53;1795.87;;;982.17;;
14088;SDS011;7120;52.890;6.040;2023-01-06T05:11:19;1466.83;;;999.90;;
14088;SDS011;7120;52.890;6.040;2023-01-06T05:13:46;1382.10;;;984.10;;
14088;SDS011;7120;52.890;6.040;2023-01-06T05:16:45;1999.90;;;999.90;;
14088;SDS011;7120;52.890;6.040;2023-01-06T05:19:03;1938.27;;;957.60;;
14088;SDS011;7120;52.890;6.040;2023-01-06T05:21:29;1317.83;;;999.90;;
14088;SDS011;7120;52.890;6.040;2023-01-06T05:23:55;1541.77;;;989.23;;
14088;SDS011;7120;52.890;6.040;2023-01-06T05:26:21;1448.33;;;829.63;;
14088;SDS011;7120;52.890;6.040;2023-01-06T05:28:48;1754.63;;;976.93;;
14088;SDS011;7120;52.890;6.040;2023-01-06T05:31:14;1564.93;;;946.67;;
14088;SDS011;7120;52.890;6.040;2023-01-06T05:33:41;1528.13;;;999.90;;
14088;SDS011;7120;52.890;6.040;2023-01-06T05:36:10;1919.33;;;999.90;;
14088;SDS011;7120;52.890;6.040;2023-01-06T05:38:39;1096.67;;;979.27;;
14088;SDS011;7120;52.890;6.040;2023-01-06T05:41:05;1916.17;;;999.90;;
14088;SDS011;7120;52.890;6.040;2023-01-06T05:43:32;1274.43;;;922.63;;
14088;SDS011;7120;52.890;6.040;2023-01-06T05:45:58;1114.27;;;998.60;;
14088;SDS011;7120;52.890;6.040;2023-01-06T05:48:25;1101.03;;;996.60;;
14088;SDS011;7120;52.890;6.040;2023-01-06T05:50:52;1069.33;;;979.37;;
14088;SDS011;7120;52.890;6.040;2023-01-06T05:53:24;1444.00;;;999.90;;
14088;SDS011;7120;52.890;6.040;2023-01-06T05:55:49;936.13;;;867.93;;
14088;SDS011;7120;52.890;6.040;2023-01-06T05:58:14;993.40;;;901.20;;
14088;SDS011;7120;52.890;6.040;2023-01-06T06:00:40;1111.20;;;999.90;;
14088;SDS011;7120;52.890;6.040;2023-01-06T06:03:05;1141.07;;;999.90;;
14088;SDS011;7120;52.890;6.040;2023-01-06T06:05:30;976.20;;;887.33;;
14088;SDS011;7120;52.890;6.040;2023-01-06T06:07:56;1004.50;;;915.23;;
14088;SDS011;7120;52.890;6.040;2023-01-06T06:10:21;920.07;;;848.83;;
14088;SDS011;7120;52.890;6.040;2023-01-06T06:12:49;1076.07;;;974.00;;
14088;SDS011;7120;52.890;6.040;2023-01-06T06:15:15;1042.10;;;944.13;;
14088;SDS011;7120;52.890;6.040;2023-01-06T06:17:40;925.00;;;850.07;;
14088;SDS011;7120;52.890;6.040;2023-01-06T06:20:06;946.10;;;870.63;;
14088;SDS011;7120;52.890;6.040;2023-01-06T06:22:32;1064.70;;;959.37;;
14088;SDS011;7120;52.890;6.040;2023-01-06T06:24:57;1076.67;;;971.33;;
14088;SDS011;7120;52.890;6.040;2023-01-06T06:27:22;981.83;;;892.80;;
14088;SDS011;7120;52.890;6.040;2023-01-06T06:29:48;980.90;;;896.57;;
14088;SDS011;7120;52.890;6.040;2023-01-06T06:32:13;913.03;;;842.23;;
14088;SDS011;7120;52.890;6.040;2023-01-06T06:34:38;834.03;;;762.53;;
14088;SDS011;7120;52.890;6.040;2023-01-06T06:37:04;1021.50;;;930.87;;
14088;SDS011;7120;52.890;6.040;2023-01-06T06:39:29;837.00;;;775.30;;
14088;SDS011;7120;52.890;6.040;2023-01-06T06:41:54;864.90;;;798.43;;
14088;SDS011;7120;52.890;6.040;2023-01-06T06:44:20;1173.97;;;999.90;;
14088;SDS011;7120;52.890;6.040;2023-01-06T06:46:45;986.80;;;900.47;;
14088;SDS011;7120;52.890;6.040;2023-01-06T06:49:10;1094.53;;;952.57;;
14088;SDS011;7120;52.890;6.040;2023-01-06T06:51:36;868.50;;;796.13;;
14088;SDS011;7120;52.890;6.040;2023-01-06T06:54:02;835.83;;;769.60;;
14088;SDS011;7120;52.890;6.040;2023-01-06T06:56:28;1042.70;;;950.60;;
14088;SDS011;7120;52.890;6.040;2023-01-06T06:58:53;955.20;;;876.47;;
14088;SDS011;7120;52.890;6.040;2023-01-06T07:01:19;1124.63;;;999.90;;
14088;SDS011;7120;52.890;6.040;2023-01-06T07:03:45;991.13;;;901.30;;
14088;SDS011;7120;52.890;6.040;2023-01-06T07:06:11;1374.27;;;999.90;;
14088;SDS011;7120;52.890;6.040;2023-01-06T07:08:46;1391.30;;;941.70;;
14088;SDS011;7120;52.890;6.040;2023-01-06T07:11:12;1228.87;;;950.13;;
14088;SDS011;7120;52.890;6.040;2023-01-06T07:13:37;970.00;;;890.53;;
14088;SDS011;7120;52.890;6.040;2023-01-06T07:16:03;989.80;;;907.00;;
14088;SDS011;7120;52.890;6.040;2023-01-06T07:18:28;923.00;;;849.93;;
14088;SDS011;7120;52.890;6.040;2023-01-06T07:20:54;1028.57;;;938.17;;
14088;SDS011;7120;52.890;6.040;2023-01-06T07:23:20;938.67;;;849.53;;
14088;SDS011;7120;52.890;6.040;2023-01-06T07:25:50;1020.50;;;924.57;;
14088;SDS011;7120;52.890;6.040;2023-01-06T07:28:19;1092.80;;;981.63;;
14088;SDS011;7120;52.890;6.040;2023-01-06T07:30:44;1028.70;;;928.57;;
14088;SDS011;7120;52.890;6.040;2023-01-06T07:33:10;976.07;;;887.27;;
14088;SDS011;7120;52.890;6.040;2023-01-06T07:35:35;937.87;;;864.37;;
14088;SDS011;7120;52.890;6.040;2023-01-06T07:38:04;1350.37;;;999.90;;
14088;SDS011;7120;52.890;6.040;2023-01-06T07:40:30;1070.87;;;974.50;;
14088;SDS011;7120;52.890;6.040;2023-01-06T07:42:56;1315.53;;;999.90;;
14088;SDS011;7120;52.890;6.040;2023-01-06T07:45:22;1077.47;;;966.87;;
14088;SDS011;7120;52.890;6.040;2023-01-06T07:47:47;1213.37;;;999.90;;
14088;SDS011;7120;52.890;6.040;2023-01-06T07:50:13;1395.63;;;999.90;;
14088;SDS011;7120;52.890;6.040;2023-01-06T07:52:38;1193.07;;;999.90;;
14088;SDS011;7120;52.890;6.040;2023-01-06T07:55:04;982.37;;;879.43;;
14088;SDS011;7120;52.890;6.040;2023-01-06T07:57:30;1044.03;;;929.33;;
14088;SDS011;7120;52.890;6.040;2023-01-06T07:59:55;1241.00;;;999.90;;
14088;SDS011;7120;52.890;6.040;2023-01-06T08:02:21;1122.23;;;979.57;;
14088;SDS011;7120;52.890;6.040;2023-01-06T08:04:47;1243.70;;;967.13;;
14088;SDS011;7120;52.890;6.040;2023-01-06T08:07:13;1017.60;;;656.87;;
14088;SDS011;7120;52.890;6.040;2023-01-06T08:09:39;1279.23;;;999.90;;
14088;SDS011;7120;52.890;6.040;2023-01-06T08:12:04;1265.77;;;999.90;;
14088;SDS011;7120;52.890;6.040;2023-01-06T08:14:31;1086.63;;;973.93;;
14088;SDS011;7120;52.890;6.040;2023-01-06T08:16:56;1171.03;;;999.90;;
14088;SDS011;7120;52.890;6.040;2023-01-06T08:19:22;1452.30;;;999.90;;
14088;SDS011;7120;52.890;6.040;2023-01-06T08:21:47;1474.47;;;999.90;;
14088;SDS011;7120;52.890;6.040;2023-01-06T08:24:13;1216.23;;;999.90;;
14088;SDS011;7120;52.890;6.040;2023-01-06T08:26:38;1177.10;;;999.90;;
14088;SDS011;7120;52.890;6.040;2023-01-06T08:29:03;1214.20;;;999.90;;
14088;SDS011;7120;52.890;6.040;2023-01-06T08:31:29;1195.07;;;999.90;;
14088;SDS011;7120;52.890;6.040;2023-01-06T08:33:54;1448.87;;;999.90;;
14088;SDS011;7120;52.890;6.040;2023-01-06T08:36:20;1130.63;;;999.90;;
14088;SDS011;7120;52.890;6.040;2023-01-06T08:38:48;1006.67;;;905.27;;
14088;SDS011;7120;52.890;6.040;2023-01-06T08:41:14;1149.17;;;999.90;;
14088;SDS011;7120;52.890;6.040;2023-01-06T08:43:41;1256.20;;;999.90;;
14088;SDS011;7120;52.890;6.040;2023-01-06T08:46:09;1113.60;;;997.00;;
14088;SDS011;7120;52.890;6.040;2023-01-06T08:48:36;1098.97;;;996.23;;
14088;SDS011;7120;52.890;6.040;2023-01-06T08:51:03;1128.73;;;999.90;;
14088;SDS011;7120;52.890;6.040;2023-01-06T08:53:29;1019.40;;;921.67;;
14088;SDS011;7120;52.890;6.040;2023-01-06T08:55:55;1357.00;;;999.90;;
14088;SDS011;7120;52.890;6.040;2023-01-06T08:58:21;1183.17;;;999.90;;
14088;SDS011;7120;52.890;6.040;2023-01-06T09:00:46;1094.77;;;991.50;;
14088;SDS011;7120;52.890;6.040;2023-01-06T09:03:11;1096.47;;;984.27;;
14088;SDS011;7120;52.890;6.040;2023-01-06T09:05:37;1123.30;;;999.90;;
14088;SDS011;7120;52.890;6.040;2023-01-06T09:08:02;998.17;;;907.27;;
14088;SDS011;7120;52.890;6.040;2023-01-06T09:10:28;1068.97;;;962.47;;
14088;SDS011;7120;52.890;6.040;2023-01-06T09:12:53;1133.83;;;999.90;;
14088;SDS011;7120;52.890;6.040;2023-01-06T09:15:19;1168.90;;;999.90;;
14088;SDS011;7120;52.890;6.040;2023-01-06T09:17:44;1050.90;;;938.63;;
14088;SDS011;7120;52.890;6.040;2023-01-06T09:20:09;1057.27;;;944.43;;
14088;SDS011;7120;52.890;6.040;2023-01-06T09:22:35;1356.23;;;999.90;;
14088;SDS011;7120;52.890;6.040;2023-01-06T09:25:01;1354.90;;;999.90;;
14088;SDS011;7120;52.890;6.040;2023-01-06T09:27:28;1316.43;;;999.90;;
14088;SDS011;7120;52.890;6.040;2023-01-06T09:29:53;1459.43;;;999.90;;
14088;SDS011;7120;52.890;6.040;2023-01-06T09:32:19;1117.67;;;959.77;;
14088;SDS011;7120;52.890;6.040;2023-01-06T09:34:44;1084.10;;;973.67;;
14088;SDS011;7120;52.890;6.040;2023-01-06T09:37:10;1048.60;;;936.07;;
14088;SDS011;7120;52.890;6.040;2023-01-06T09:39:35;1077.20;;;966.27;;
14088;SDS011;7120;52.890;6.040;2023-01-06T09:44:39;1139.80;;;952.37;;
14088;SDS011;7120;52.890;6.040;2023-01-06T09:47:19;982.57;;;874.27;;
14088;SDS011;7120;52.890;6.040;2023-01-06T09:49:58;887.77;;;796.73;;
14088;SDS011;7120;52.890;6.040;2023-01-06T09:52:36;937.90;;;810.83;;
14088;SDS011;7120;52.890;6.040;2023-01-06T09:55:18;992.10;;;888.57;;
14088;SDS011;7120;52.890;6.040;2023-01-06T09:57:51;624.20;;;589.13;;
14088;SDS011;7120;52.890;6.040;2023-01-06T10:00:33;718.77;;;665.23;;
14088;SDS011;7120;52.890;6.040;2023-01-06T10:03:03;1315.47;;;967.17;;
14088;SDS011;7120;52.890;6.040;2023-01-06T10:08:25;797.30;;;723.87;;
14088;SDS011;7120;52.890;6.040;2023-01-06T10:11:07;670.73;;;629.77;;
14088;SDS011;7120;52.890;6.040;2023-01-06T10:14:11;882.00;;;794.27;;
14088;SDS011;7120;52.890;6.040;2023-01-06T10:25:21;582.63;;;549.83;;
14088;SDS011;7120;52.890;6.040;2023-01-06T10:30:42;630.77;;;595.63;;
14088;SDS011;7120;52.890;6.040;2023-01-06T10:33:24;670.20;;;625.97;;
14088;SDS011;7120;52.890;6.040;2023-01-06T10:35:52;641.33;;;602.63;;
14088;SDS011;7120;52.890;6.040;2023-01-06T10:38:20;649.87;;;606.80;;
14088;SDS011;7120;52.890;6.040;2023-01-06T10:40:54;775.23;;;721.03;;
14088;SDS011;7120;52.890;6.040;2023-01-06T10:43:30;680.63;;;638.97;;
14088;SDS011;7120;52.890;6.040;2023-01-06T10:45:55;935.77;;;867.33;;
14088;SDS011;7120;52.890;6.040;2023-01-06T10:48:24;566.10;;;535.33;;
14088;SDS011;7120;52.890;6.040;2023-01-06T10:50:53;462.00;;;436.27;;
14088;SDS011;7120;52.890;6.040;2023-01-06T10:53:19;413.67;;;392.07;;
14088;SDS011;7120;52.890;6.040;2023-01-06T10:55:55;624.20;;;584.60;;
14088;SDS011;7120;52.890;6.040;2023-01-06T10:58:32;392.90;;;373.97;;
14088;SDS011;7120;52.890;6.040;2023-01-06T11:03:33;174.67;;;165.90;;
14088;SDS011;7120;52.890;6.040;2023-01-06T11:06:04;271.33;;;258.77;;
14088;SDS011;7120;52.890;6.040;2023-01-06T11:08:39;213.43;;;204.10;;
14088;SDS011;7120;52.890;6.040;2023-01-06T11:11:09;190.03;;;181.03;;
14088;SDS011;7120;52.890;6.040;2023-01-06T11:13:36;159.13;;;151.97;;
14088;SDS011;7120;52.890;6.040;2023-01-06T11:16:05;326.57;;;305.83;;
14088;SDS011;7120;52.890;6.040;2023-01-06T11:18:41;291.80;;;278.90;;
14088;SDS011;7120;52.890;6.040;2023-01-06T11:21:11;245.03;;;233.30;;
14088;SDS011;7120;52.890;6.040;2023-01-06T11:23:38;165.93;;;158.37;;
14088;SDS011;7120;52.890;6.040;2023-01-06T11:28:41;174.50;;;166.67;;
14088;SDS011;7120;52.890;6.040;2023-01-06T11:36:20;263.40;;;251.93;;
14088;SDS011;7120;52.890;6.040;2023-01-06T11:38:48;285.60;;;274.23;;
14088;SDS011;7120;52.890;6.040;2023-01-06T11:41:32;286.87;;;275.40;;
14088;SDS011;7120;52.890;6.040;2023-01-06T11:44:46;171.57;;;164.57;;
14088;SDS011;7120;52.890;6.040;2023-01-06T11:47:04;159.43;;;152.87;;
14088;SDS011;7120;52.890;6.040;2023-01-06T11:49:39;229.30;;;219.80;;
14088;SDS011;7120;52.890;6.040;2023-01-06T11:52:20;196.13;;;188.27;;
14088;SDS011;7120;52.890;6.040;2023-01-06T11:54:55;291.83;;;280.43;;
14088;SDS011;7120;52.890;6.040;2023-01-06T11:57:25;245.80;;;235.93;;
14088;SDS011;7120;52.890;6.040;2023-01-06T11:59:55;207.93;;;199.50;;
14088;SDS011;7120;52.890;6.040;2023-01-06T12:05:41;321.10;;;287.33;;
14088;SDS011;7120;52.890;6.040;2023-01-06T12:08:09;217.67;;;207.73;;
14088;SDS011;7120;52.890;6.040;2023-01-06T12:10:39;173.40;;;165.90;;
14088;SDS011;7120;52.890;6.040;2023-01-06T12:13:11;156.00;;;148.60;;
14088;SDS011;7120;52.890;6.040;2023-01-06T12:22:57;249.87;;;239.83;;
14088;SDS011;7120;52.890;6.040;2023-01-06T12:25:26;240.20;;;229.60;;
14088;SDS011;7120;52.890;6.040;2023-01-06T12:28:04;127.77;;;122.00;;
14088;SDS011;7120;52.890;6.040;2023-01-06T12:30:41;123.80;;;118.50;;
14088;SDS011;7120;52.890;6.040;2023-01-06T12:35:48;223.20;;;214.27;;
14088;SDS011;7120;52.890;6.040;2023-01-06T12:41:23;207.63;;;198.80;;
14088;SDS011;7120;52.890;6.040;2023-01-06T12:44:01;218.93;;;210.17;;
14088;SDS011;7120;52.890;6.040;2023-01-06T12:46:39;194.57;;;186.50;;
14088;SDS011;7120;52.890;6.040;2023-01-06T12:51:52;181.93;;;174.73;;
14088;SDS011;7120;52.890;6.040;2023-01-06T12:54:22;143.97;;;137.30;;
14088;SDS011;7120;52.890;6.040;2023-01-06T13:03:13;210.90;;;201.90;;
14088;SDS011;7120;52.890;6.040;2023-01-06T13:11:57;198.70;;;190.33;;
14088;SDS011;7120;52.890;6.040;2023-01-06T13:14:40;182.13;;;174.40;;
14088;SDS011;7120;52.890;6.040;2023-01-06T13:17:32;145.87;;;139.40;;
14088;SDS011;7120;52.890;6.040;2023-01-06T13:20:03;165.30;;;157.33;;
14088;SDS011;7120;52.890;6.040;2023-01-06T13:28:25;178.23;;;170.53;;
14088;SDS011;7120;52.890;6.040;2023-01-06T13:31:00;132.77;;;126.93;;
14088;SDS011;7120;52.890;6.040;2023-01-06T13:35:57;116.30;;;110.67;;
14088;SDS011;7120;52.890;6.040;2023-01-06T13:41:19;140.50;;;134.10;;
14088;SDS011;7120;52.890;6.040;2023-01-06T13:43:49;115.83;;;110.37;;
14088;SDS011;7120;52.890;6.040;2023-01-06T13:46:18;131.90;;;125.77;;
14088;SDS011;7120;52.890;6.040;2023-01-06T13:48:49;123.93;;;117.80;;
14088;SDS011;7120;52.890;6.040;2023-01-06T13:51:18;115.30;;;109.77;;
14088;SDS011;7120;52.890;6.040;2023-01-06T13:53:46;191.73;;;175.53;;
14088;SDS011;7120;52.890;6.040;2023-01-06T13:58:40;213.60;;;203.07;;
14088;SDS011;7120;52.890;6.040;2023-01-06T14:01:10;122.33;;;116.40;;
14088;SDS011;7120;52.890;6.040;2023-01-06T14:03:42;187.87;;;178.83;;
14088;SDS011;7120;52.890;6.040;2023-01-06T14:08:57;217.17;;;206.07;;
14088;SDS011;7120;52.890;6.040;2023-01-06T14:11:33;261.73;;;248.60;;
14088;SDS011;7120;52.890;6.040;2023-01-06T14:14:05;157.10;;;149.30;;
14088;SDS011;7120;52.890;6.040;2023-01-06T14:21:47;322.23;;;306.93;;
14088;SDS011;7120;52.890;6.040;2023-01-06T14:26:50;199.53;;;189.97;;
14088;SDS011;7120;52.890;6.040;2023-01-06T14:32:03;203.63;;;194.07;;
14088;SDS011;7120;52.890;6.040;2023-01-06T14:34:29;304.37;;;290.23;;
14088;SDS011;7120;52.890;6.040;2023-01-06T14:36:56;213.53;;;204.23;;
14088;SDS011;7120;52.890;6.040;2023-01-06T14:39:23;167.57;;;159.73;;
14088;SDS011;7120;52.890;6.040;2023-01-06T14:42:01;172.37;;;164.83;;
14088;SDS011;7120;52.890;6.040;2023-01-06T14:47:05;220.50;;;211.07;;
14088;SDS011;7120;52.890;6.040;2023-01-06T14:52:17;145.00;;;138.83;;
14088;SDS011;7120;52.890;6.040;2023-01-06T14:54:45;147.47;;;140.63;;
14088;SDS011;7120;52.890;6.040;2023-01-06T14:57:29;234.53;;;223.57;;
14088;SDS011;7120;52.890;6.040;2023-01-06T15:02:29;296.47;;;282.43;;
14088;SDS011;7120;52.890;6.040;2023-01-06T15:04:56;298.73;;;284.23;;
14088;SDS011;7120;52.890;6.040;2023-01-06T15:07:23;386.20;;;367.50;;
14088;SDS011;7120;52.890;6.040;2023-01-06T15:09:49;437.17;;;415.17;;
14088;SDS011;7120;52.890;6.040;2023-01-06T15:14:54;206.77;;;197.37;;
14088;SDS011;7120;52.890;6.040;2023-01-06T15:17:20;299.50;;;285.37;;
14088;SDS011;7120;52.890;6.040;2023-01-06T15:19:47;315.87;;;301.00;;
14088;SDS011;7120;52.890;6.040;2023-01-06T15:22:17;255.90;;;244.03;;
14088;SDS011;7120;52.890;6.040;2023-01-06T15:24:45;261.97;;;249.00;;
14088;SDS011;7120;52.890;6.040;2023-01-06T15:27:13;213.80;;;202.97;;
14088;SDS011;7120;52.890;6.040;2023-01-06T15:32:14;274.43;;;260.03;;
14088;SDS011;7120;52.890;6.040;2023-01-06T15:34:40;392.87;;;371.10;;
14088;SDS011;7120;52.890;6.040;2023-01-06T15:37:13;416.77;;;393.57;;
14088;SDS011;7120;52.890;6.040;2023-01-06T15:39:42;388.67;;;367.73;;
14088;SDS011;7120;52.890;6.040;2023-01-06T15:42:09;392.53;;;372.67;;
14088;SDS011;7120;52.890;6.040;2023-01-06T15:44:37;386.80;;;367.97;;
14088;SDS011;7120;52.890;6.040;2023-01-06T15:49:32;482.47;;;456.83;;
14088;SDS011;7120;52.890;6.040;2023-01-06T15:52:07;436.13;;;414.07;;
14088;SDS011;7120;52.890;6.040;2023-01-06T15:54:44;406.83;;;384.30;;
14088;SDS011;7120;52.890;6.040;2023-01-06T15:57:11;449.93;;;427.17;;
14088;SDS011;7120;52.890;6.040;2023-01-06T15:59:38;554.20;;;520.73;;
14088;SDS011;7120;52.890;6.040;2023-01-06T16:02:04;490.37;;;462.80;;
14088;SDS011;7120;52.890;6.040;2023-01-06T16:04:41;441.10;;;414.73;;
14088;SDS011;7120;52.890;6.040;2023-01-06T16:09:54;255.37;;;242.03;;
14088;SDS011;7120;52.890;6.040;2023-01-06T16:12:20;430.47;;;405.13;;
14088;SDS011;7120;52.890;6.040;2023-01-06T16:14:46;274.43;;;260.17;;
14088;SDS011;7120;52.890;6.040;2023-01-06T16:17:21;427.40;;;402.27;;
14088;SDS011;7120;52.890;6.040;2023-01-06T16:20:03;311.73;;;295.73;;
14088;SDS011;7120;52.890;6.040;2023-01-06T16:22:47;276.13;;;262.50;;
14088;SDS011;7120;52.890;6.040;2023-01-06T16:25:27;349.43;;;333.37;;
14088;SDS011;7120;52.890;6.040;2023-01-06T16:27:56;325.03;;;310.17;;
14088;SDS011;7120;52.890;6.040;2023-01-06T16:30:26;292.27;;;278.23;;
14088;SDS011;7120;52.890;6.040;2023-01-06T16:32:54;355.53;;;338.90;;
14088;SDS011;7120;52.890;6.040;2023-01-06T16:35:25;233.77;;;223.20;;
14088;SDS011;7120;52.890;6.040;2023-01-06T16:37:52;392.10;;;373.33;;
14088;SDS011;7120;52.890;6.040;2023-01-06T16:40:18;203.70;;;193.93;;
14088;SDS011;7120;52.890;6.040;2023-01-06T16:42:46;260.40;;;247.83;;
14088;SDS011;7120;52.890;6.040;2023-01-06T16:47:50;162.53;;;154.40;;